sensor_id;sensor_type;location;lat;lon;timestamp;temperature;humidity
57242;DHT22;43095;53.302;5.786;2024-03-23T00:54:27;4.30;99.90
57242;DHT22;43095;53.302;5.786;2024-03-23T00:56:53;4.30;99.90
57242;DHT22;43095;53.302;5.786;2024-03-23T00:59:19;4.30;99.90
57242;DHT22;43095;53.302;5.786;2024-03-23T01:01:47;4.30;99.90
57242;DHT22;43095;53.302;5.786;2024-03-23T01:04:14;4.30;99.90
57242;DHT22;43095;53.302;5.786;2024-03-23T01:06:40;4.30;99.90
57242;DHT22;43095;53.302;5.786;2024-03-23T01:09:06;4.30;99.90
57242;DHT22;43095;53.302;5.786;2024-03-23T01:11:32;4.30;99.90
57242;DHT22;43095;53.302;5.786;2024-03-23T01:13:58;4.30;99.90
57242;DHT22;43095;53.302;5.786;2024-03-23T01:16:24;4.30;99.90
57242;DHT22;43095;53.302;5.786;2024-03-23T01:18:51;4.30;99.90
57242;DHT22;43095;53.302;5.786;2024-03-23T01:21:17;4.30;99.90
57242;DHT22;43095;53.302;5.786;2024-03-23T01:23:43;4.20;99.90
57242;DHT22;43095;53.302;5.786;2024-03-23T01:26:09;4.20;99.90
57242;DHT22;43095;53.302;5.786;2024-03-23T01:28:35;4.20;99.90
57242;DHT22;43095;53.302;5.786;2024-03-23T01:31:02;4.20;99.90
57242;DHT22;43095;53.302;5.786;2024-03-23T01:33:29;4.20;99.90
57242;DHT22;43095;53.302;5.786;2024-03-23T01:35:55;4.20;99.90
57242;DHT22;43095;53.302;5.786;2024-03-23T01:38:21;4.20;99.90
57242;DHT22;43095;53.302;5.786;2024-03-23T01:40:47;4.20;99.90
57242;DHT22;43095;53.302;5.786;2024-03-23T01:43:13;4.20;99.90
57242;DHT22;43095;53.302;5.786;2024-03-23T01:45:39;4.20;99.90
57242;DHT22;43095;53.302;5.786;2024-03-23T01:48:06;4.30;99.90
57242;DHT22;43095;53.302;5.786;2024-03-23T01:50:33;4.20;99.90
57242;DHT22;43095;53.302;5.786;2024-03-23T01:53:02;4.20;99.90
57242;DHT22;43095;53.302;5.786;2024-03-23T01:55:30;4.20;99.90
57242;DHT22;43095;53.302;5.786;2024-03-23T01:57:57;4.30;99.90
57242;DHT22;43095;53.302;5.786;2024-03-23T02:00:23;4.30;99.90
57242;DHT22;43095;53.302;5.786;2024-03-23T02:02:50;4.20;99.90
57242;DHT22;43095;53.302;5.786;2024-03-23T02:05:16;4.30;99.90
57242;DHT22;43095;53.302;5.786;2024-03-23T02:07:43;4.30;99.90
57242;DHT22;43095;53.302;5.786;2024-03-23T02:10:10;4.30;99.90
57242;DHT22;43095;53.302;5.786;2024-03-23T02:12:39;4.30;99.90
57242;DHT22;43095;53.302;5.786;2024-03-23T02:15:05;4.30;99.90
57242;DHT22;43095;53.302;5.786;2024-03-23T02:17:33;4.30;99.90
57242;DHT22;43095;53.302;5.786;2024-03-23T02:20:01;4.30;99.90
57242;DHT22;43095;53.302;5.786;2024-03-23T02:22:39;4.30;99.90
57242;DHT22;43095;53.302;5.786;2024-03-23T02:25:06;4.30;99.90
57242;DHT22;43095;53.302;5.786;2024-03-23T02:27:33;4.30;99.90
57242;DHT22;43095;53.302;5.786;2024-03-23T02:30:01;4.30;99.90
57242;DHT22;43095;53.302;5.786;2024-03-23T02:32:29;4.30;99.90
57242;DHT22;43095;53.302;5.786;2024-03-23T02:34:55;4.30;99.90
57242;DHT22;43095;53.302;5.786;2024-03-23T02:37:21;4.30;99.90
57242;DHT22;43095;53.302;5.786;2024-03-23T02:39:47;4.20;99.90
57242;DHT22;43095;53.302;5.786;2024-03-23T02:42:13;4.20;99.90
57242;DHT22;43095;53.302;5.786;2024-03-23T02:44:42;4.20;99.90
57242;DHT22;43095;53.302;5.786;2024-03-23T02:47:08;4.20;99.90
57242;DHT22;43095;53.302;5.786;2024-03-23T02:49:34;4.30;99.90
57242;DHT22;43095;53.302;5.786;2024-03-23T02:52:00;4.30;99.90
57242;DHT22;43095;53.302;5.786;2024-03-23T02:54:26;4.30;99.90
57242;DHT22;43095;53.302;5.786;2024-03-23T02:56:52;4.40;99.90
57242;DHT22;43095;53.302;5.786;2024-03-23T02:59:19;4.40;99.90
57242;DHT22;43095;53.302;5.786;2024-03-23T03:01:45;4.40;99.90
57242;DHT22;43095;53.302;5.786;2024-03-23T03:04:11;4.40;99.90
57242;DHT22;43095;53.302;5.786;2024-03-23T03:06:37;4.50;99.90
57242;DHT22;43095;53.302;5.786;2024-03-23T03:09:03;4.50;99.90
57242;DHT22;43095;53.302;5.786;2024-03-23T03:11:30;4.50;99.90
57242;DHT22;43095;53.302;5.786;2024-03-23T03:13:56;4.50;99.90
57242;DHT22;43095;53.302;5.786;2024-03-23T03:16:22;4.50;99.90
57242;DHT22;43095;53.302;5.786;2024-03-23T03:18:49;4.50;99.90
57242;DHT22;43095;53.302;5.786;2024-03-23T03:21:15;4.50;99.90
57242;DHT22;43095;53.302;5.786;2024-03-23T03:23:42;4.50;99.90
57242;DHT22;43095;53.302;5.786;2024-03-23T03:26:08;4.50;99.90
57242;DHT22;43095;53.302;5.786;2024-03-23T03:28:34;4.50;99.90
57242;DHT22;43095;53.302;5.786;2024-03-23T03:31:01;4.50;99.90
57242;DHT22;43095;53.302;5.786;2024-03-23T03:33:27;4.50;99.90
57242;DHT22;43095;53.302;5.786;2024-03-23T03:35:54;4.50;99.90
57242;DHT22;43095;53.302;5.786;2024-03-23T03:38:21;4.50;99.90
57242;DHT22;43095;53.302;5.786;2024-03-23T03:40:47;4.50;99.90
57242;DHT22;43095;53.302;5.786;2024-03-23T03:43:14;4.50;99.90
57242;DHT22;43095;53.302;5.786;2024-03-23T03:45:40;4.50;99.90
57242;DHT22;43095;53.302;5.786;2024-03-23T03:48:07;4.50;99.90
57242;DHT22;43095;53.302;5.786;2024-03-23T03:50:34;4.50;99.90
57242;DHT22;43095;53.302;5.786;2024-03-23T03:53:00;4.60;99.90
57242;DHT22;43095;53.302;5.786;2024-03-23T03:55:26;4.70;99.90
57242;DHT22;43095;53.302;5.786;2024-03-23T03:57:53;4.70;99.90
57242;DHT22;43095;53.302;5.786;2024-03-23T04:00:20;4.80;99.90
57242;DHT22;43095;53.302;5.786;2024-03-23T04:02:46;4.90;99.90
57242;DHT22;43095;53.302;5.786;2024-03-23T04:05:12;4.90;99.90
57242;DHT22;43095;53.302;5.786;2024-03-23T04:07:38;5.00;99.90
57242;DHT22;43095;53.302;5.786;2024-03-23T04:10:05;5.00;99.90
57242;DHT22;43095;53.302;5.786;2024-03-23T04:12:37;5.00;99.90
57242;DHT22;43095;53.302;5.786;2024-03-23T04:15:04;5.10;99.90
57242;DHT22;43095;53.302;5.786;2024-03-23T04:17:32;5.10;99.90
57242;DHT22;43095;53.302;5.786;2024-03-23T04:20:00;5.10;99.90
57242;DHT22;43095;53.302;5.786;2024-03-23T04:22:28;5.20;99.90
57242;DHT22;43095;53.302;5.786;2024-03-23T04:24:55;5.20;99.90
57242;DHT22;43095;53.302;5.786;2024-03-23T04:27:23;5.20;99.90
57242;DHT22;43095;53.302;5.786;2024-03-23T04:29:52;5.20;99.90
57242;DHT22;43095;53.302;5.786;2024-03-23T04:32:19;5.20;99.90
57242;DHT22;43095;53.302;5.786;2024-03-23T04:34:46;5.30;99.90
57242;DHT22;43095;53.302;5.786;2024-03-23T04:37:12;5.30;99.90
57242;DHT22;43095;53.302;5.786;2024-03-23T04:39:38;5.30;99.90
57242;DHT22;43095;53.302;5.786;2024-03-23T04:42:05;5.30;99.70
57242;DHT22;43095;53.302;5.786;2024-03-23T04:44:31;5.30;99.60
57242;DHT22;43095;53.302;5.786;2024-03-23T04:46:58;5.30;99.50
57242;DHT22;43095;53.302;5.786;2024-03-23T04:49:25;5.30;99.20
57242;DHT22;43095;53.302;5.786;2024-03-23T04:51:52;5.30;98.80
57242;DHT22;43095;53.302;5.786;2024-03-23T04:54:18;5.30;98.70
57242;DHT22;43095;53.302;5.786;2024-03-23T04:56:45;5.40;97.50
57242;DHT22;43095;53.302;5.786;2024-03-23T04:59:11;5.40;97.30
57242;DHT22;43095;53.302;5.786;2024-03-23T05:01:37;5.50;97.50
57242;DHT22;43095;53.302;5.786;2024-03-23T05:04:08;5.50;97.10
57242;DHT22;43095;53.302;5.786;2024-03-23T05:06:34;5.50;96.60
57242;DHT22;43095;53.302;5.786;2024-03-23T05:09:01;5.50;96.30
57242;DHT22;43095;53.302;5.786;2024-03-23T05:11:34;5.50;95.50
57242;DHT22;43095;53.302;5.786;2024-03-23T05:14:00;5.50;95.20
57242;DHT22;43095;53.302;5.786;2024-03-23T05:16:27;5.50;96.00
57242;DHT22;43095;53.302;5.786;2024-03-23T05:18:54;5.50;96.50
57242;DHT22;43095;53.302;5.786;2024-03-23T05:21:21;5.50;96.60
57242;DHT22;43095;53.302;5.786;2024-03-23T05:23:47;5.50;96.80
57242;DHT22;43095;53.302;5.786;2024-03-23T05:26:14;5.50;97.00
57242;DHT22;43095;53.302;5.786;2024-03-23T05:28:40;5.50;97.10
57242;DHT22;43095;53.302;5.786;2024-03-23T05:31:06;5.50;96.80
57242;DHT22;43095;53.302;5.786;2024-03-23T05:33:38;5.50;96.90
57242;DHT22;43095;53.302;5.786;2024-03-23T05:36:05;5.50;95.70
57242;DHT22;43095;53.302;5.786;2024-03-23T05:38:31;5.50;95.40
57242;DHT22;43095;53.302;5.786;2024-03-23T05:40:59;5.50;95.70
57242;DHT22;43095;53.302;5.786;2024-03-23T05:43:26;5.50;95.10
57242;DHT22;43095;53.302;5.786;2024-03-23T05:45:58;5.50;95.30
57242;DHT22;43095;53.302;5.786;2024-03-23T05:48:26;5.50;95.50
57242;DHT22;43095;53.302;5.786;2024-03-23T05:50:52;5.50;95.70
57242;DHT22;43095;53.302;5.786;2024-03-23T05:53:19;5.50;95.80
57242;DHT22;43095;53.302;5.786;2024-03-23T05:55:49;5.50;96.40
57242;DHT22;43095;53.302;5.786;2024-03-23T05:58:17;5.50;94.80
57242;DHT22;43095;53.302;5.786;2024-03-23T06:00:44;5.50;94.60
57242;DHT22;43095;53.302;5.786;2024-03-23T06:03:10;5.60;94.30
57242;DHT22;43095;53.302;5.786;2024-03-23T06:05:37;5.60;94.10
57242;DHT22;43095;53.302;5.786;2024-03-23T06:08:04;5.60;94.50
57242;DHT22;43095;53.302;5.786;2024-03-23T06:10:31;5.60;94.70
57242;DHT22;43095;53.302;5.786;2024-03-23T06:12:57;5.60;94.30
57242;DHT22;43095;53.302;5.786;2024-03-23T06:15:25;5.60;93.90
57242;DHT22;43095;53.302;5.786;2024-03-23T06:17:53;5.60;93.60
57242;DHT22;43095;53.302;5.786;2024-03-23T06:20:19;5.70;94.00
57242;DHT22;43095;53.302;5.786;2024-03-23T06:22:45;5.70;92.30
57242;DHT22;43095;53.302;5.786;2024-03-23T06:25:11;5.60;89.60
57242;DHT22;43095;53.302;5.786;2024-03-23T06:27:38;5.60;89.90
57242;DHT22;43095;53.302;5.786;2024-03-23T06:30:05;5.50;90.00
57242;DHT22;43095;53.302;5.786;2024-03-23T06:32:32;5.50;90.90
57242;DHT22;43095;53.302;5.786;2024-03-23T06:34:59;5.50;91.50
57242;DHT22;43095;53.302;5.786;2024-03-23T06:37:26;5.50;91.90
57242;DHT22;43095;53.302;5.786;2024-03-23T06:39:52;5.50;92.50
57242;DHT22;43095;53.302;5.786;2024-03-23T06:42:18;5.50;92.70
57242;DHT22;43095;53.302;5.786;2024-03-23T06:44:44;5.50;93.30
57242;DHT22;43095;53.302;5.786;2024-03-23T06:47:10;5.50;93.30
57242;DHT22;43095;53.302;5.786;2024-03-23T06:49:36;5.50;90.90
57242;DHT22;43095;53.302;5.786;2024-03-23T06:52:03;5.50;91.50
57242;DHT22;43095;53.302;5.786;2024-03-23T06:54:29;5.50;91.80
57242;DHT22;43095;53.302;5.786;2024-03-23T06:56:55;5.50;92.30
57242;DHT22;43095;53.302;5.786;2024-03-23T06:59:22;5.60;92.90
57242;DHT22;43095;53.302;5.786;2024-03-23T07:01:48;5.70;93.10
57242;DHT22;43095;53.302;5.786;2024-03-23T07:04:14;5.80;93.20
57242;DHT22;43095;53.302;5.786;2024-03-23T07:06:44;5.90;93.00
57242;DHT22;43095;53.302;5.786;2024-03-23T07:09:11;6.10;92.60
57242;DHT22;43095;53.302;5.786;2024-03-23T07:11:38;6.20;90.90
57242;DHT22;43095;53.302;5.786;2024-03-23T07:14:04;6.10;90.10
57242;DHT22;43095;53.302;5.786;2024-03-23T07:16:30;5.90;91.40
57242;DHT22;43095;53.302;5.786;2024-03-23T07:18:57;5.60;91.80
57242;DHT22;43095;53.302;5.786;2024-03-23T07:21:23;5.50;92.60
57242;DHT22;43095;53.302;5.786;2024-03-23T07:23:49;5.30;93.40
57242;DHT22;43095;53.302;5.786;2024-03-23T07:26:15;5.20;93.50
57242;DHT22;43095;53.302;5.786;2024-03-23T07:28:43;5.10;93.60
57242;DHT22;43095;53.302;5.786;2024-03-23T07:31:11;5.00;94.00
57242;DHT22;43095;53.302;5.786;2024-03-23T07:33:44;5.00;94.30
57242;DHT22;43095;53.302;5.786;2024-03-23T07:36:11;5.00;94.80
57242;DHT22;43095;53.302;5.786;2024-03-23T07:38:40;5.10;95.10
57242;DHT22;43095;53.302;5.786;2024-03-23T07:41:13;5.20;95.70
57242;DHT22;43095;53.302;5.786;2024-03-23T07:43:43;5.40;95.50
57242;DHT22;43095;53.302;5.786;2024-03-23T07:46:10;5.50;95.30
57242;DHT22;43095;53.302;5.786;2024-03-23T07:48:36;5.60;95.60
57242;DHT22;43095;53.302;5.786;2024-03-23T07:53:32;5.80;95.00
57242;DHT22;43095;53.302;5.786;2024-03-23T07:58:28;5.90;94.20
57242;DHT22;43095;53.302;5.786;2024-03-23T08:00:56;6.00;93.50
57242;DHT22;43095;53.302;5.786;2024-03-23T08:03:23;6.10;92.70
57242;DHT22;43095;53.302;5.786;2024-03-23T08:05:49;6.20;93.20
57242;DHT22;43095;53.302;5.786;2024-03-23T08:08:15;6.30;93.10
57242;DHT22;43095;53.302;5.786;2024-03-23T08:10:51;6.40;91.50
57242;DHT22;43095;53.302;5.786;2024-03-23T08:13:18;6.60;90.90
57242;DHT22;43095;53.302;5.786;2024-03-23T08:15:44;6.70;90.20
57242;DHT22;43095;53.302;5.786;2024-03-23T08:18:12;6.80;89.10
57242;DHT22;43095;53.302;5.786;2024-03-23T08:20:42;6.90;88.00
57242;DHT22;43095;53.302;5.786;2024-03-23T08:23:08;6.90;87.60
57242;DHT22;43095;53.302;5.786;2024-03-23T08:25:35;7.00;88.40
57242;DHT22;43095;53.302;5.786;2024-03-23T08:28:01;7.00;89.00
57242;DHT22;43095;53.302;5.786;2024-03-23T08:30:28;7.00;87.90
57242;DHT22;43095;53.302;5.786;2024-03-23T08:32:54;6.80;87.60
57242;DHT22;43095;53.302;5.786;2024-03-23T08:35:20;6.40;87.00
57242;DHT22;43095;53.302;5.786;2024-03-23T08:37:46;6.20;87.70
57242;DHT22;43095;53.302;5.786;2024-03-23T08:40:12;6.00;88.20
57242;DHT22;43095;53.302;5.786;2024-03-23T08:42:38;5.80;87.70
57242;DHT22;43095;53.302;5.786;2024-03-23T08:45:05;5.70;88.30
57242;DHT22;43095;53.302;5.786;2024-03-23T08:47:36;5.80;89.30
57242;DHT22;43095;53.302;5.786;2024-03-23T08:50:02;6.00;90.50
57242;DHT22;43095;53.302;5.786;2024-03-23T08:52:29;6.20;90.50
57242;DHT22;43095;53.302;5.786;2024-03-23T08:54:56;6.20;86.20
57242;DHT22;43095;53.302;5.786;2024-03-23T08:57:23;6.30;85.20
57242;DHT22;43095;53.302;5.786;2024-03-23T08:59:50;6.40;85.40
57242;DHT22;43095;53.302;5.786;2024-03-23T09:02:16;6.50;85.50
57242;DHT22;43095;53.302;5.786;2024-03-23T09:04:43;6.60;86.50
57242;DHT22;43095;53.302;5.786;2024-03-23T09:07:10;6.80;87.10
57242;DHT22;43095;53.302;5.786;2024-03-23T09:09:38;7.00;87.20
57242;DHT22;43095;53.302;5.786;2024-03-23T09:12:06;7.20;87.30
57242;DHT22;43095;53.302;5.786;2024-03-23T09:14:33;7.20;85.90
57242;DHT22;43095;53.302;5.786;2024-03-23T09:17:00;7.30;84.60
57242;DHT22;43095;53.302;5.786;2024-03-23T09:19:29;7.40;83.30
57242;DHT22;43095;53.302;5.786;2024-03-23T09:21:56;7.30;82.80
57242;DHT22;43095;53.302;5.786;2024-03-23T09:24:22;7.40;81.80
57242;DHT22;43095;53.302;5.786;2024-03-23T09:26:48;7.40;83.20
57242;DHT22;43095;53.302;5.786;2024-03-23T09:29:14;7.50;83.80
57242;DHT22;43095;53.302;5.786;2024-03-23T09:31:41;7.50;82.70
57242;DHT22;43095;53.302;5.786;2024-03-23T09:34:07;7.50;82.30
57242;DHT22;43095;53.302;5.786;2024-03-23T09:36:33;7.40;82.00
57242;DHT22;43095;53.302;5.786;2024-03-23T09:38:59;7.50;83.00
57242;DHT22;43095;53.302;5.786;2024-03-23T09:41:25;7.50;82.50
57242;DHT22;43095;53.302;5.786;2024-03-23T09:43:53;7.50;81.00
57242;DHT22;43095;53.302;5.786;2024-03-23T09:46:19;7.60;81.40
57242;DHT22;43095;53.302;5.786;2024-03-23T09:48:46;7.50;80.50
57242;DHT22;43095;53.302;5.786;2024-03-23T09:51:13;7.40;79.30
57242;DHT22;43095;53.302;5.786;2024-03-23T09:53:39;7.40;81.60
57242;DHT22;43095;53.302;5.786;2024-03-23T09:56:07;7.50;81.10
57242;DHT22;43095;53.302;5.786;2024-03-23T09:58:34;7.40;82.40
57242;DHT22;43095;53.302;5.786;2024-03-23T10:01:01;7.40;81.30
57242;DHT22;43095;53.302;5.786;2024-03-23T10:03:29;7.40;81.70
57242;DHT22;43095;53.302;5.786;2024-03-23T10:06:02;7.30;81.90
57242;DHT22;43095;53.302;5.786;2024-03-23T10:08:29;7.20;82.00
57242;DHT22;43095;53.302;5.786;2024-03-23T10:10:57;7.00;81.90
57242;DHT22;43095;53.302;5.786;2024-03-23T10:13:27;6.80;82.30
57242;DHT22;43095;53.302;5.786;2024-03-23T10:15:59;6.70;82.30
57242;DHT22;43095;53.302;5.786;2024-03-23T10:18:26;6.60;82.70
57242;DHT22;43095;53.302;5.786;2024-03-23T10:23:33;6.90;84.60
57242;DHT22;43095;53.302;5.786;2024-03-23T10:26:23;7.20;85.20
57242;DHT22;43095;53.302;5.786;2024-03-23T10:29:01;7.50;84.70
57242;DHT22;43095;53.302;5.786;2024-03-23T10:31:28;7.70;86.10
57242;DHT22;43095;53.302;5.786;2024-03-23T10:33:57;7.80;81.70
57242;DHT22;43095;53.302;5.786;2024-03-23T10:36:24;7.80;80.00
57242;DHT22;43095;53.302;5.786;2024-03-23T10:38:54;7.70;81.20
57242;DHT22;43095;53.302;5.786;2024-03-23T10:41:21;7.60;80.90
57242;DHT22;43095;53.302;5.786;2024-03-23T10:43:48;7.70;80.90
57242;DHT22;43095;53.302;5.786;2024-03-23T10:46:15;7.80;81.30
57242;DHT22;43095;53.302;5.786;2024-03-23T10:48:42;7.80;80.30
57242;DHT22;43095;53.302;5.786;2024-03-23T10:51:10;7.80;80.40
57242;DHT22;43095;53.302;5.786;2024-03-23T10:53:42;7.90;81.80
57242;DHT22;43095;53.302;5.786;2024-03-23T10:56:37;8.10;81.90
57242;DHT22;43095;53.302;5.786;2024-03-23T10:59:06;8.20;81.40
57242;DHT22;43095;53.302;5.786;2024-03-23T11:01:33;8.30;80.60
57242;DHT22;43095;53.302;5.786;2024-03-23T11:03:59;8.40;80.10
57242;DHT22;43095;53.302;5.786;2024-03-23T11:06:36;8.60;81.40
57242;DHT22;43095;53.302;5.786;2024-03-23T11:15:11;9.00;78.10
57242;DHT22;43095;53.302;5.786;2024-03-23T11:17:38;8.90;78.00
57242;DHT22;43095;53.302;5.786;2024-03-23T11:20:05;8.60;78.70
57242;DHT22;43095;53.302;5.786;2024-03-23T11:22:43;8.40;76.70
57242;DHT22;43095;53.302;5.786;2024-03-23T11:25:18;8.30;76.70
57242;DHT22;43095;53.302;5.786;2024-03-23T11:27:53;8.10;77.30
57242;DHT22;43095;53.302;5.786;2024-03-23T11:30:22;8.00;78.60
57242;DHT22;43095;53.302;5.786;2024-03-23T11:32:53;7.80;77.80
57242;DHT22;43095;53.302;5.786;2024-03-23T11:35:39;7.60;79.60
57242;DHT22;43095;53.302;5.786;2024-03-23T11:38:10;7.50;80.70
57242;DHT22;43095;53.302;5.786;2024-03-23T11:40:45;7.60;81.60
57242;DHT22;43095;53.302;5.786;2024-03-23T11:43:19;7.80;81.10
57242;DHT22;43095;53.302;5.786;2024-03-23T11:45:49;8.10;81.50
57242;DHT22;43095;53.302;5.786;2024-03-23T11:48:22;8.40;81.50
57242;DHT22;43095;53.302;5.786;2024-03-23T11:50:51;8.60;81.00
57242;DHT22;43095;53.302;5.786;2024-03-23T11:53:22;8.70;79.40
57242;DHT22;43095;53.302;5.786;2024-03-23T11:55:56;8.60;76.90
57242;DHT22;43095;53.302;5.786;2024-03-23T11:58:24;8.70;77.90
57242;DHT22;43095;53.302;5.786;2024-03-23T12:00:57;8.70;77.60
57242;DHT22;43095;53.302;5.786;2024-03-23T12:03:31;8.60;77.00
57242;DHT22;43095;53.302;5.786;2024-03-23T12:06:03;8.50;76.50
57242;DHT22;43095;53.302;5.786;2024-03-23T12:08:36;8.50;76.50
57242;DHT22;43095;53.302;5.786;2024-03-23T12:11:11;8.40;78.20
57242;DHT22;43095;53.302;5.786;2024-03-23T12:13:39;8.70;78.70
57242;DHT22;43095;53.302;5.786;2024-03-23T12:16:18;8.60;76.50
57242;DHT22;43095;53.302;5.786;2024-03-23T12:18:47;8.50;76.20
57242;DHT22;43095;53.302;5.786;2024-03-23T12:21:18;8.30;76.50
57242;DHT22;43095;53.302;5.786;2024-03-23T12:23:44;8.20;78.20
57242;DHT22;43095;53.302;5.786;2024-03-23T12:26:12;8.10;79.20
57242;DHT22;43095;53.302;5.786;2024-03-23T12:28:39;8.10;80.70
57242;DHT22;43095;53.302;5.786;2024-03-23T12:31:05;7.90;81.70
57242;DHT22;43095;53.302;5.786;2024-03-23T12:33:32;8.00;82.80
57242;DHT22;43095;53.302;5.786;2024-03-23T12:35:58;8.10;82.30
57242;DHT22;43095;53.302;5.786;2024-03-23T12:38:24;8.20;81.00
57242;DHT22;43095;53.302;5.786;2024-03-23T12:40:51;8.20;80.70
57242;DHT22;43095;53.302;5.786;2024-03-23T12:43:18;8.20;77.10
57242;DHT22;43095;53.302;5.786;2024-03-23T12:45:47;8.30;78.10
57242;DHT22;43095;53.302;5.786;2024-03-23T12:48:14;8.40;78.10
57242;DHT22;43095;53.302;5.786;2024-03-23T12:50:41;8.40;78.50
57242;DHT22;43095;53.302;5.786;2024-03-23T12:53:07;8.30;78.80
57242;DHT22;43095;53.302;5.786;2024-03-23T12:55:37;8.10;77.40
57242;DHT22;43095;53.302;5.786;2024-03-23T12:58:04;8.00;77.00
57242;DHT22;43095;53.302;5.786;2024-03-23T13:00:30;7.80;76.90
57242;DHT22;43095;53.302;5.786;2024-03-23T13:02:56;7.70;76.90
57242;DHT22;43095;53.302;5.786;2024-03-23T13:05:23;7.80;77.10
57242;DHT22;43095;53.302;5.786;2024-03-23T13:07:49;7.70;77.20
57242;DHT22;43095;53.302;5.786;2024-03-23T13:10:15;7.60;78.30
57242;DHT22;43095;53.302;5.786;2024-03-23T13:12:41;7.60;77.30
57242;DHT22;43095;53.302;5.786;2024-03-23T13:15:09;7.50;78.80
57242;DHT22;43095;53.302;5.786;2024-03-23T13:17:35;7.50;81.50
57242;DHT22;43095;53.302;5.786;2024-03-23T13:20:01;7.40;82.50
57242;DHT22;43095;53.302;5.786;2024-03-23T13:22:29;7.40;82.70
57242;DHT22;43095;53.302;5.786;2024-03-23T13:24:56;7.40;80.80
57242;DHT22;43095;53.302;5.786;2024-03-23T13:27:22;7.40;80.10
57242;DHT22;43095;53.302;5.786;2024-03-23T13:29:48;7.40;80.80
57242;DHT22;43095;53.302;5.786;2024-03-23T13:32:14;7.50;78.40
57242;DHT22;43095;53.302;5.786;2024-03-23T13:34:41;7.50;76.70
57242;DHT22;43095;53.302;5.786;2024-03-23T13:37:07;7.50;77.70
57242;DHT22;43095;53.302;5.786;2024-03-23T13:39:33;7.50;77.50
57242;DHT22;43095;53.302;5.786;2024-03-23T13:41:59;7.50;78.20
57242;DHT22;43095;53.302;5.786;2024-03-23T13:44:26;7.60;78.30
57242;DHT22;43095;53.302;5.786;2024-03-23T13:46:52;7.80;79.10
57242;DHT22;43095;53.302;5.786;2024-03-23T13:49:29;7.80;76.90
57242;DHT22;43095;53.302;5.786;2024-03-23T13:51:57;7.70;75.40
57242;DHT22;43095;53.302;5.786;2024-03-23T13:54:26;7.60;77.20
57242;DHT22;43095;53.302;5.786;2024-03-23T13:56:54;7.80;79.10
57242;DHT22;43095;53.302;5.786;2024-03-23T13:59:21;8.00;77.30
57242;DHT22;43095;53.302;5.786;2024-03-23T14:01:49;8.40;77.10
57242;DHT22;43095;53.302;5.786;2024-03-23T14:04:17;8.60;76.40
57242;DHT22;43095;53.302;5.786;2024-03-23T14:06:45;9.00;76.20
57242;DHT22;43095;53.302;5.786;2024-03-23T14:09:12;9.00;74.50
57242;DHT22;43095;53.302;5.786;2024-03-23T14:11:39;8.80;73.90
57242;DHT22;43095;53.302;5.786;2024-03-23T14:14:07;8.80;72.70
57242;DHT22;43095;53.302;5.786;2024-03-23T14:16:34;8.80;70.80
57242;DHT22;43095;53.302;5.786;2024-03-23T14:19:00;8.60;71.60
57242;DHT22;43095;53.302;5.786;2024-03-23T14:21:26;8.60;71.70
57242;DHT22;43095;53.302;5.786;2024-03-23T14:23:53;8.90;71.10
57242;DHT22;43095;53.302;5.786;2024-03-23T14:26:21;9.20;70.20
57242;DHT22;43095;53.302;5.786;2024-03-23T14:28:49;9.50;71.50
57242;DHT22;43095;53.302;5.786;2024-03-23T14:31:16;9.80;70.50
57242;DHT22;43095;53.302;5.786;2024-03-23T14:33:42;10.00;67.80
57242;DHT22;43095;53.302;5.786;2024-03-23T14:36:16;9.60;67.30
57242;DHT22;43095;53.302;5.786;2024-03-23T14:38:49;9.30;68.50
57242;DHT22;43095;53.302;5.786;2024-03-23T14:41:16;9.10;70.20
57242;DHT22;43095;53.302;5.786;2024-03-23T14:43:42;9.20;69.40
57242;DHT22;43095;53.302;5.786;2024-03-23T14:46:15;9.40;69.40
57242;DHT22;43095;53.302;5.786;2024-03-23T14:48:43;9.40;68.20
57242;DHT22;43095;53.302;5.786;2024-03-23T14:51:10;9.20;68.20
57242;DHT22;43095;53.302;5.786;2024-03-23T14:53:38;8.90;69.80
57242;DHT22;43095;53.302;5.786;2024-03-23T14:56:09;8.70;71.60
57242;DHT22;43095;53.302;5.786;2024-03-23T14:58:38;8.60;72.60
57242;DHT22;43095;53.302;5.786;2024-03-23T15:01:05;8.70;72.10
57242;DHT22;43095;53.302;5.786;2024-03-23T15:03:36;8.80;71.60
57242;DHT22;43095;53.302;5.786;2024-03-23T15:06:05;8.60;72.90
57242;DHT22;43095;53.302;5.786;2024-03-23T15:08:31;8.60;72.80
57242;DHT22;43095;53.302;5.786;2024-03-23T15:11:01;8.50;72.30
57242;DHT22;43095;53.302;5.786;2024-03-23T15:13:36;8.30;73.10
57242;DHT22;43095;53.302;5.786;2024-03-23T15:16:04;8.40;74.20
57242;DHT22;43095;53.302;5.786;2024-03-23T15:18:32;8.70;72.60
57242;DHT22;43095;53.302;5.786;2024-03-23T15:21:00;8.90;70.10
57242;DHT22;43095;53.302;5.786;2024-03-23T15:23:34;8.80;70.10
57242;DHT22;43095;53.302;5.786;2024-03-23T15:26:02;8.50;69.70
57242;DHT22;43095;53.302;5.786;2024-03-23T15:28:29;8.20;70.00
57242;DHT22;43095;53.302;5.786;2024-03-23T15:31:14;8.00;70.90
57242;DHT22;43095;53.302;5.786;2024-03-23T15:33:41;8.00;72.30
57242;DHT22;43095;53.302;5.786;2024-03-23T15:36:07;8.30;72.50
57242;DHT22;43095;53.302;5.786;2024-03-23T15:38:33;8.50;71.40
57242;DHT22;43095;53.302;5.786;2024-03-23T15:41:00;8.40;71.50
57242;DHT22;43095;53.302;5.786;2024-03-23T15:43:26;8.30;71.80
57242;DHT22;43095;53.302;5.786;2024-03-23T15:46:00;8.20;72.10
57242;DHT22;43095;53.302;5.786;2024-03-23T15:48:31;8.10;71.70
57242;DHT22;43095;53.302;5.786;2024-03-23T15:50:59;8.10;72.60
57242;DHT22;43095;53.302;5.786;2024-03-23T15:53:27;8.00;72.60
57242;DHT22;43095;53.302;5.786;2024-03-23T15:55:54;8.00;72.70
57242;DHT22;43095;53.302;5.786;2024-03-23T15:58:22;8.00;74.20
57242;DHT22;43095;53.302;5.786;2024-03-23T16:01:01;8.00;73.60
57242;DHT22;43095;53.302;5.786;2024-03-23T16:03:32;8.00;74.70
57242;DHT22;43095;53.302;5.786;2024-03-23T16:06:01;8.20;73.60
57242;DHT22;43095;53.302;5.786;2024-03-23T16:08:29;8.50;73.00
57242;DHT22;43095;53.302;5.786;2024-03-23T16:11:00;8.60;71.70
57242;DHT22;43095;53.302;5.786;2024-03-23T16:13:27;8.80;71.40
57242;DHT22;43095;53.302;5.786;2024-03-23T16:18:23;8.70;70.00
57242;DHT22;43095;53.302;5.786;2024-03-23T16:20:54;8.50;71.30
57242;DHT22;43095;53.302;5.786;2024-03-23T16:23:25;8.20;71.90
57242;DHT22;43095;53.302;5.786;2024-03-23T16:25:54;8.00;72.10
57242;DHT22;43095;53.302;5.786;2024-03-23T16:28:25;7.80;73.00
57242;DHT22;43095;53.302;5.786;2024-03-23T16:31:04;7.60;72.70
57242;DHT22;43095;53.302;5.786;2024-03-23T16:33:43;7.50;73.20
57242;DHT22;43095;53.302;5.786;2024-03-23T16:36:10;7.40;73.90
57242;DHT22;43095;53.302;5.786;2024-03-23T16:38:41;7.30;74.30
57242;DHT22;43095;53.302;5.786;2024-03-23T16:41:09;7.30;74.80
57242;DHT22;43095;53.302;5.786;2024-03-23T16:43:39;7.20;75.20
57242;DHT22;43095;53.302;5.786;2024-03-23T16:46:10;7.20;76.10
57242;DHT22;43095;53.302;5.786;2024-03-23T16:48:41;7.20;76.40
57242;DHT22;43095;53.302;5.786;2024-03-23T16:51:09;7.30;76.70
57242;DHT22;43095;53.302;5.786;2024-03-23T16:53:37;7.30;77.20
57242;DHT22;43095;53.302;5.786;2024-03-23T16:56:09;7.30;77.10
57242;DHT22;43095;53.302;5.786;2024-03-23T16:58:36;7.20;77.50